createdAt,value
2022-09-03T00:02:09.701Z,100.00
2022-09-03T00:04:57.453Z,100.00
2022-09-03T00:07:30.502Z,100.00
2022-09-03T00:10:03.000Z,100.00
2022-09-03T00:12:36.870Z,100.00
2022-09-03T00:15:08.159Z,100.00
2022-09-03T00:18:01.188Z,100.00
2022-09-03T00:20:39.188Z,100.00
2022-09-03T00:23:16.144Z,100.00
2022-09-03T00:25:47.662Z,100.00
2022-09-03T00:28:21.799Z,100.00
2022-09-03T00:30:57.265Z,100.00
2022-09-03T00:33:30.174Z,100.00
2022-09-03T00:36:02.550Z,100.00
2022-09-03T00:38:30.446Z,100.00
2022-09-03T00:41:22.990Z,100.00
2022-09-03T00:44:09.395Z,100.00
2022-09-03T00:46:42.552Z,100.00
2022-09-03T00:49:14.919Z,100.00
2022-09-03T00:52:35.793Z,100.00
2022-09-03T00:55:40.001Z,100.00
2022-09-03T00:58:39.335Z,100.00
2022-09-03T01:01:18.969Z,100.00
2022-09-03T01:04:38.216Z,100.00
2022-09-03T01:07:14.461Z,100.00
2022-09-03T01:09:56.922Z,100.00
2022-09-03T01:12:51.151Z,100.00
2022-09-03T01:15:22.706Z,100.00
2022-09-03T01:18:00.099Z,100.00
2022-09-03T01:20:55.690Z,100.00
2022-09-03T01:23:28.336Z,100.00
2022-09-03T01:26:27.496Z,100.00
2022-09-03T01:29:09.131Z,100.00
2022-09-03T01:31:46.887Z,100.00
2022-09-03T01:34:23.472Z,100.00
2022-09-03T01:36:58.233Z,100.00
2022-09-03T01:39:51.504Z,100.00
2022-09-03T01:42:39.552Z,100.00
2022-09-03T01:45:34.120Z,100.00
2022-09-03T01:48:19.456Z,100.00
2022-09-03T01:51:19.482Z,100.00
2022-09-03T01:54:20.694Z,100.00
2022-09-03T01:57:31.257Z,100.00
2022-09-03T02:00:13.237Z,100.00
2022-09-03T02:02:47.814Z,100.00
2022-09-03T02:05:23.341Z,100.00
2022-09-03T02:08:05.277Z,100.00
2022-09-03T02:10:39.319Z,100.00
2022-09-03T02:13:11.639Z,100.00
2022-09-03T02:15:42.003Z,100.00
2022-09-03T02:18:17.147Z,100.00
2022-09-03T02:20:44.819Z,100.00
2022-09-03T02:23:11.539Z,100.00
2022-09-03T02:25:46.650Z,100.00
2022-09-03T02:28:17.278Z,100.00
2022-09-03T02:30:50.871Z,100.00
2022-09-03T02:33:17.657Z,100.00
2022-09-03T02:35:44.378Z,100.00
2022-09-03T02:38:16.906Z,100.00
2022-09-03T02:40:44.480Z,100.00
2022-09-03T02:43:35.326Z,100.00
2022-09-03T02:46:04.120Z,100.00
2022-09-03T02:48:30.796Z,100.00
2022-09-03T02:50:57.442Z,100.00
2022-09-03T02:53:28.252Z,100.00
2022-09-03T02:56:01.748Z,100.00
2022-09-03T02:58:29.294Z,100.00
2022-09-03T03:00:55.850Z,100.00
2022-09-03T03:03:22.412Z,100.00
2022-09-03T03:05:51.770Z,100.00
2022-09-03T03:08:21.497Z,100.00
2022-09-03T03:10:49.512Z,100.00
2022-09-03T03:13:16.604Z,100.00
2022-09-03T03:15:43.437Z,100.00
2022-09-03T03:18:12.287Z,100.00
2022-09-03T03:20:38.992Z,100.00
2022-09-03T03:23:06.404Z,100.00
2022-09-03T03:25:34.595Z,100.00
2022-09-03T03:28:01.272Z,100.00
2022-09-03T03:30:28.388Z,100.00
2022-09-03T03:32:55.222Z,100.00
2022-09-03T03:35:22.343Z,100.00
2022-09-03T03:37:49.010Z,100.00
2022-09-03T03:40:15.867Z,100.00
2022-09-03T03:42:42.619Z,100.00
2022-09-03T03:45:12.946Z,100.00
2022-09-03T03:47:39.478Z,100.00
2022-09-03T03:50:06.480Z,100.00
2022-09-03T03:52:33.177Z,100.00
2022-09-03T03:54:59.708Z,100.00
2022-09-03T03:57:26.407Z,100.00
2022-09-03T03:59:52.915Z,100.00
2022-09-03T04:02:19.565Z,100.00
2022-09-03T04:04:46.168Z,100.00
2022-09-03T04:07:12.723Z,100.00
2022-09-03T04:09:39.237Z,100.00
2022-09-03T04:12:08.810Z,100.00
2022-09-03T04:14:35.543Z,100.00
2022-09-03T04:17:03.149Z,100.00
2022-09-03T04:19:30.282Z,100.00
2022-09-03T04:21:57.258Z,100.00
2022-09-03T04:24:24.001Z,100.00
2022-09-03T04:26:50.690Z,100.00
2022-09-03T04:29:18.355Z,100.00
2022-09-03T04:32:04.929Z,100.00
2022-09-03T04:34:32.115Z,100.00
2022-09-03T04:36:59.201Z,100.00
2022-09-03T04:39:26.188Z,100.00
2022-09-03T04:41:52.830Z,100.00
2022-09-03T04:44:19.429Z,100.00
2022-09-03T04:46:47.894Z,100.00
2022-09-03T04:49:14.814Z,100.00
2022-09-03T04:51:41.643Z,100.00
2022-09-03T04:54:09.936Z,100.00
2022-09-03T04:56:40.142Z,100.00
2022-09-03T04:59:08.115Z,100.00
2022-09-03T05:01:37.376Z,100.00
2022-09-03T05:04:05.235Z,100.00
2022-09-03T05:06:33.348Z,100.00
2022-09-03T05:09:00.765Z,100.00
2022-09-03T05:11:29.010Z,100.00
2022-09-03T05:13:57.659Z,100.00
2022-09-03T05:16:25.930Z,100.00
2022-09-03T05:18:54.134Z,100.00
2022-09-03T05:21:21.084Z,100.00
2022-09-03T05:23:50.486Z,100.00
2022-09-03T05:26:28.803Z,100.00
2022-09-03T05:28:58.952Z,96.25
2022-09-03T05:31:26.759Z,81.13
2022-09-03T05:33:58.378Z,75.10
2022-09-03T05:36:26.723Z,71.19
2022-09-03T05:38:54.307Z,63.98
2022-09-03T05:41:22.011Z,60.80
2022-09-03T05:43:55.252Z,61.37
2022-09-03T05:46:27.617Z,60.63
2022-09-03T05:48:54.241Z,61.51
2022-09-03T05:51:20.800Z,57.95
2022-09-03T05:53:49.282Z,56.67
2022-09-03T05:56:19.089Z,55.58
2022-09-03T05:58:46.782Z,55.69
2022-09-03T06:01:21.678Z,54.80
2022-09-03T06:03:54.562Z,51.01
2022-09-03T06:06:31.609Z,50.79
2022-09-03T06:09:00.330Z,48.23
2022-09-03T06:11:29.483Z,47.42
2022-09-03T06:13:57.667Z,44.16
2022-09-03T06:16:30.586Z,44.93
2022-09-03T06:18:59.859Z,41.84
2022-09-03T06:21:27.143Z,41.86
2022-09-03T06:23:59.625Z,40.24
2022-09-03T06:26:28.845Z,42.01
2022-09-03T06:28:57.085Z,40.96
2022-09-03T06:31:24.320Z,39.75
2022-09-03T06:33:51.889Z,38.61
2022-09-03T06:36:19.955Z,40.74
2022-09-03T06:38:47.548Z,40.32
2022-09-03T06:41:26.192Z,38.98
2022-09-03T06:44:04.727Z,40.28
2022-09-03T06:46:35.064Z,39.59
2022-09-03T06:49:02.024Z,40.72
2022-09-03T06:51:30.564Z,42.52
2022-09-03T06:54:02.423Z,38.31
2022-09-03T06:56:29.278Z,38.08
2022-09-03T06:59:00.732Z,38.50
2022-09-03T07:01:31.385Z,35.53
2022-09-03T07:04:05.435Z,36.76
2022-09-03T07:06:37.163Z,38.35
2022-09-03T07:09:03.807Z,35.59
2022-09-03T07:11:31.372Z,37.02
2022-09-03T07:13:58.947Z,37.60
2022-09-03T07:16:35.542Z,36.63
2022-09-03T07:19:04.626Z,35.71
2022-09-03T07:21:34.130Z,32.55
2022-09-03T07:24:01.109Z,29.90
2022-09-03T07:26:30.536Z,34.30
2022-09-03T07:28:58.343Z,37.66
2022-09-03T07:31:29.258Z,39.14
2022-09-03T07:34:00.148Z,38.49
2022-09-03T07:36:28.985Z,37.66
2022-09-03T07:38:59.522Z,36.59
2022-09-03T07:41:28.862Z,34.78
2022-09-03T07:43:57.124Z,32.36
2022-09-03T07:46:27.359Z,33.91
2022-09-03T07:48:58.714Z,33.00
2022-09-03T07:51:29.821Z,28.13
2022-09-03T07:53:58.833Z,29.65
2022-09-03T07:56:27.102Z,28.58
2022-09-03T07:58:56.591Z,30.68
2022-09-03T08:01:25.289Z,29.80
2022-09-03T08:06:45.214Z,29.67
2022-09-03T08:09:13.742Z,34.15
2022-09-03T08:11:43.514Z,32.82
2022-09-03T08:14:12.348Z,32.12
2022-09-03T08:16:44.411Z,37.54
2022-09-03T08:19:11.965Z,38.49
2022-09-03T08:21:38.644Z,40.87
2022-09-03T08:24:06.439Z,40.51
2022-09-03T08:26:35.932Z,41.53
2022-09-03T08:29:03.663Z,39.29
2022-09-03T08:31:32.319Z,43.28
2022-09-03T08:34:06.532Z,38.62
2022-09-03T08:36:36.429Z,38.19
2022-09-03T08:39:09.589Z,36.00
2022-09-03T08:41:43.509Z,33.28
2022-09-03T08:44:22.114Z,33.69
2022-09-03T08:46:58.835Z,30.85
2022-09-03T08:49:34.000Z,34.21
2022-09-03T08:52:06.012Z,28.85
2022-09-03T08:54:33.116Z,26.64
2022-09-03T08:57:03.356Z,33.24
2022-09-03T08:59:32.985Z,30.33
2022-09-03T09:02:21.797Z,33.94
2022-09-03T09:05:00.318Z,35.36
2022-09-03T09:08:04.738Z,37.05
2022-09-03T09:10:33.885Z,37.78
2022-09-03T09:13:16.320Z,34.68
2022-09-03T09:16:15.204Z,36.24
2022-09-03T09:19:07.842Z,34.23
2022-09-03T09:21:45.988Z,32.56
2022-09-03T09:24:23.305Z,30.07
2022-09-03T09:26:56.069Z,30.95
2022-09-03T09:29:22.848Z,29.14
2022-09-03T09:31:49.855Z,31.89
2022-09-03T09:34:16.407Z,31.03
2022-09-03T09:36:48.402Z,31.60
2022-09-03T09:39:19.353Z,33.68
2022-09-03T09:42:05.455Z,32.64
2022-09-03T09:44:32.054Z,30.78
2022-09-03T09:47:06.457Z,32.35
2022-09-03T09:49:51.097Z,33.20
2022-09-03T09:52:19.425Z,33.46
2022-09-03T09:54:46.912Z,36.66
2022-09-03T09:57:22.413Z,33.99
2022-09-03T09:59:50.416Z,36.25
2022-09-03T10:02:24.034Z,36.01
2022-09-03T10:04:50.759Z,39.37
2022-09-03T10:11:07.964Z,35.83
2022-09-03T10:13:43.333Z,40.30
2022-09-03T10:16:15.890Z,40.34
2022-09-03T10:18:48.467Z,41.55
2022-09-03T10:21:27.774Z,42.84
2022-09-03T10:24:21.829Z,42.00
2022-09-03T10:26:48.385Z,41.53
2022-09-03T10:29:22.119Z,41.69
2022-09-03T10:32:37.832Z,41.55
2022-09-03T10:35:43.254Z,42.99
2022-09-03T10:38:36.815Z,43.39
2022-09-03T10:41:59.858Z,45.79
2022-09-03T10:44:53.310Z,44.14
2022-09-03T10:47:47.573Z,40.58
2022-09-03T10:50:23.265Z,37.53
2022-09-03T10:53:16.561Z,39.58
2022-09-03T10:56:04.217Z,44.09
2022-09-03T10:58:30.790Z,36.02
2022-09-03T11:01:10.925Z,37.62
2022-09-03T11:03:39.007Z,35.35
2022-09-03T11:06:16.972Z,34.86
2022-09-03T11:09:11.820Z,36.00
2022-09-03T11:11:45.351Z,38.00
2022-09-03T11:14:16.028Z,42.79
2022-09-03T11:16:57.604Z,42.83
2022-09-03T11:19:54.064Z,46.30
2022-09-03T11:22:23.267Z,43.31
2022-09-03T11:24:56.613Z,44.12
2022-09-03T11:27:41.144Z,42.71
2022-09-03T11:30:10.377Z,43.33
2022-09-03T11:32:56.079Z,44.77
2022-09-03T11:35:28.134Z,43.28
2022-09-03T11:38:05.575Z,44.32
2022-09-03T11:40:34.901Z,44.99
2022-09-03T11:43:28.978Z,44.50
2022-09-03T11:46:06.580Z,40.01
2022-09-03T11:48:45.463Z,41.04
2022-09-03T11:51:33.316Z,40.53
2022-09-03T11:54:01.896Z,43.83
2022-09-03T11:56:31.009Z,42.58
2022-09-03T11:59:19.281Z,41.64
2022-09-03T12:02:01.606Z,41.15
2022-09-03T12:05:05.995Z,44.63
2022-09-03T12:07:41.632Z,41.52
2022-09-03T12:10:21.752Z,44.66
2022-09-03T12:13:06.597Z,43.72
2022-09-03T12:15:51.688Z,40.78
2022-09-03T12:18:26.059Z,40.51
2022-09-03T12:20:52.783Z,41.35
2022-09-03T12:23:28.341Z,37.52
2022-09-03T12:25:55.010Z,39.66
2022-09-03T12:28:23.532Z,36.37
2022-09-03T12:30:53.274Z,33.45
2022-09-03T12:33:23.227Z,36.85
2022-09-03T12:35:58.716Z,36.42
2022-09-03T12:38:26.777Z,38.94
2022-09-03T12:43:42.529Z,42.81
2022-09-03T12:46:14.840Z,45.85
2022-09-03T12:48:47.364Z,44.45
2022-09-03T12:54:01.370Z,43.54
2022-09-03T12:56:29.013Z,40.51
2022-09-03T12:58:59.366Z,38.17
2022-09-03T13:01:31.805Z,38.59
2022-09-03T13:04:15.244Z,41.81
2022-09-03T13:06:49.928Z,40.43
2022-09-03T13:09:20.387Z,40.43
2022-09-03T13:11:46.789Z,41.30
2022-09-03T13:14:14.149Z,43.61
2022-09-03T13:16:46.764Z,38.97
2022-09-03T13:19:22.247Z,40.69
2022-09-03T13:21:48.758Z,40.07
2022-09-03T13:24:37.777Z,34.48
2022-09-03T13:27:22.972Z,35.81
2022-09-03T13:30:11.964Z,36.82
2022-09-03T13:32:40.648Z,33.47
2022-09-03T13:35:19.385Z,34.26
2022-09-03T13:37:54.724Z,35.53
2022-09-03T13:40:45.448Z,38.18
2022-09-03T13:43:20.805Z,40.66
2022-09-03T13:46:20.909Z,41.53
2022-09-03T13:49:08.079Z,41.53
2022-09-03T13:51:40.464Z,39.78
2022-09-03T13:54:48.045Z,39.17
2022-09-03T13:57:24.441Z,38.65
2022-09-03T14:00:10.153Z,40.58
2022-09-03T14:02:45.928Z,40.23
2022-09-03T14:05:41.361Z,43.23
2022-09-03T14:08:32.716Z,42.31
2022-09-03T14:11:36.835Z,47.34
2022-09-03T14:14:12.616Z,45.28
2022-09-03T14:16:55.368Z,44.41
2022-09-03T14:19:37.213Z,46.18
2022-09-03T14:22:25.840Z,46.39
2022-09-03T14:24:56.251Z,46.92
2022-09-03T14:27:31.597Z,46.36
2022-09-03T14:30:05.040Z,45.38
2022-09-03T14:33:13.388Z,46.34
2022-09-03T14:36:25.906Z,45.99
2022-09-03T14:39:39.552Z,46.57
2022-09-03T14:42:44.675Z,49.79
2022-09-03T14:45:13.956Z,43.61
2022-09-03T14:48:21.627Z,44.82
2022-09-03T14:51:25.711Z,45.12
2022-09-03T14:54:29.985Z,47.06
2022-09-03T14:57:22.523Z,46.47
2022-09-03T15:00:20.136Z,46.15
2022-09-03T15:03:16.287Z,48.64
2022-09-03T15:06:12.164Z,46.29
2022-09-03T15:09:03.364Z,47.76
2022-09-03T15:11:34.318Z,50.69
2022-09-03T15:14:10.470Z,49.30
2022-09-03T15:16:59.837Z,50.67
2022-09-03T15:19:47.796Z,49.90
2022-09-03T15:22:29.769Z,51.94
2022-09-03T15:25:08.551Z,50.96
2022-09-03T15:27:56.781Z,51.42
2022-09-03T15:30:23.686Z,51.92
2022-09-03T15:32:55.861Z,53.11
2022-09-03T15:35:33.671Z,52.58
2022-09-03T15:38:09.113Z,53.55
2022-09-03T15:40:48.957Z,53.36
2022-09-03T15:43:21.870Z,52.39
2022-09-03T15:45:59.962Z,53.03
2022-09-03T15:48:29.421Z,55.66
2022-09-03T15:51:22.457Z,56.30
2022-09-03T15:54:07.542Z,58.02
2022-09-03T15:56:53.266Z,58.63
2022-09-03T15:59:25.572Z,60.30
2022-09-03T16:02:11.027Z,60.63
2022-09-03T16:04:50.536Z,62.18
2022-09-03T16:07:29.148Z,64.01
2022-09-03T16:10:26.343Z,66.77
2022-09-03T16:13:05.893Z,66.26
2022-09-03T16:15:47.005Z,65.31
2022-09-03T16:19:07.951Z,65.77
2022-09-03T16:21:42.877Z,68.29
2022-09-03T16:24:30.306Z,67.94
2022-09-03T16:27:04.646Z,68.63
2022-09-03T16:29:31.744Z,70.99
2022-09-03T16:32:36.050Z,74.46
2022-09-03T16:35:21.711Z,86.23
2022-09-03T16:38:21.969Z,100.00
2022-09-03T16:40:53.553Z,100.00
2022-09-03T16:43:43.262Z,100.00
2022-09-03T16:46:09.911Z,100.00
2022-09-03T16:49:10.225Z,100.00
2022-09-03T16:52:05.705Z,100.00
2022-09-03T16:54:55.936Z,100.00
2022-09-03T16:57:38.621Z,100.00
2022-09-03T17:00:10.521Z,100.00
2022-09-03T17:03:25.130Z,100.00
2022-09-03T17:06:07.156Z,100.00
2022-09-03T17:09:01.281Z,100.00
2022-09-03T17:11:42.489Z,100.00
2022-09-03T17:14:18.030Z,100.00
2022-09-03T17:17:08.576Z,100.00
2022-09-03T17:32:12.074Z,100.00
2022-09-03T18:03:18.479Z,100.00
2022-09-03T18:06:26.665Z,100.00
2022-09-03T18:09:01.642Z,100.00
2022-09-03T18:11:37.344Z,100.00
2022-09-03T18:14:34.756Z,100.00
2022-09-03T18:28:29.066Z,100.00
2022-09-03T18:39:11.249Z,100.00
2022-09-03T18:49:34.347Z,100.00
2022-09-03T18:56:15.786Z,100.00
2022-09-03T19:03:00.201Z,100.00
2022-09-03T19:10:19.501Z,100.00
2022-09-03T19:17:09.724Z,100.00
2022-09-03T19:24:18.246Z,100.00
2022-09-03T19:38:15.272Z,100.00
2022-09-03T19:48:24.665Z,100.00
2022-09-03T19:59:40.252Z,100.00
2022-09-03T20:06:28.103Z,100.00
2022-09-03T20:28:29.694Z,100.00
2022-09-03T20:49:08.519Z,100.00
2022-09-03T21:06:42.624Z,100.00
2022-09-03T21:09:19.193Z,100.00
2022-09-03T21:15:49.004Z,100.00
2022-09-03T21:22:23.581Z,100.00
2022-09-03T21:24:58.839Z,100.00
2022-09-03T21:27:39.600Z,100.00
2022-09-03T21:30:09.591Z,100.00
2022-09-03T21:32:44.359Z,100.00
2022-09-03T21:35:27.547Z,100.00
2022-09-03T21:38:07.021Z,100.00
2022-09-03T21:41:11.352Z,100.00
2022-09-03T21:43:58.203Z,100.00
2022-09-03T21:46:31.175Z,100.00
2022-09-03T21:49:49.544Z,100.00
2022-09-03T21:52:24.691Z,100.00
2022-09-03T21:54:52.191Z,100.00
2022-09-03T21:57:46.233Z,100.00
2022-09-03T22:03:29.724Z,100.00
2022-09-03T22:06:10.654Z,100.00
2022-09-03T22:09:11.289Z,100.00
2022-09-03T22:12:13.392Z,100.00
2022-09-03T22:14:48.156Z,100.00
2022-09-03T22:17:20.519Z,100.00
2022-09-03T22:23:04.520Z,100.00
2022-09-03T22:26:13.222Z,100.00
2022-09-03T22:29:22.281Z,100.00
2022-09-03T22:32:32.690Z,100.00
2022-09-03T22:35:46.792Z,100.00
2022-09-03T22:38:48.772Z,100.00
2022-09-03T22:41:39.137Z,100.00
2022-09-03T22:44:27.029Z,100.00
2022-09-03T22:47:25.937Z,100.00
2022-09-03T22:49:59.389Z,100.00
2022-09-03T22:52:48.361Z,100.00
2022-09-03T22:55:23.076Z,100.00
2022-09-03T22:57:55.469Z,100.00
2022-09-03T23:00:39.421Z,100.00
2022-09-03T23:03:55.616Z,100.00
2022-09-03T23:06:53.356Z,100.00
2022-09-03T23:09:25.187Z,100.00
2022-09-03T23:11:58.118Z,100.00
2022-09-03T23:14:32.529Z,100.00
2022-09-03T23:20:23.229Z,100.00
2022-09-03T23:32:31.273Z,100.00
2022-09-03T23:35:02.236Z,100.00
2022-09-03T23:57:18.103Z,100.00
2022-09-03T23:59:53.357Z,100.00
